Time;durP1;ratioP1;P1;durP2;ratioP2;P2;SDS_P1;SDS_P2;PMS_P1;PMS_P2;Temp;Humidity;BMP_temperature;BMP_pressure;BME280_temperature;BME280_humidity;BME280_pressure;Samples;Min_cycle;Max_cycle;Signal;HPM_P1;HPM_P2
2023/09/05 00:01:45;;;;;;;9.37;8.67;;;;;;;15.70;100.00;93032.22;5069096;28;20285;-80
2023/09/05 00:04:13;;;;;;;8.43;7.93;;;;;;;15.65;100.00;93034.97;5070741;28;20189;-81
2023/09/05 00:06:40;;;;;;;9.17;8.33;;;;;;;15.61;100.00;93028.75;5070011;28;20225;-81
2023/09/05 00:09:05;;;;;;;9.53;9.03;;;;;;;15.60;100.00;93008.75;5069487;28;20182;-81
2023/09/05 00:11:32;;;;;;;7.63;7.23;;;;;;;15.49;100.00;93029.25;5072776;28;20285;-80
2023/09/05 00:14:00;;;;;;;8.35;7.95;;;;;;;15.49;100.00;93024.00;5078941;28;20193;-82
2023/09/05 00:16:29;;;;;;;7.90;7.50;;;;;;;15.10;100.00;93015.91;5069183;28;20222;-81
2023/09/05 00:18:55;;;;;;;8.53;8.07;;;;;;;15.24;100.00;93008.75;5070639;28;20181;-81
2023/09/05 00:21:20;;;;;;;8.57;8.17;;;;;;;15.45;100.00;93009.91;5069693;28;20937;-81
2023/09/05 00:23:46;;;;;;;9.20;8.80;;;;;;;15.48;100.00;93011.13;5062412;28;21071;-81
2023/09/05 00:26:11;;;;;;;8.00;7.70;;;;;;;15.37;100.00;93007.16;5070139;28;20213;-80
2023/09/05 00:28:36;;;;;;;8.50;8.10;;;;;;;15.31;100.00;93018.88;5069915;28;20212;-81
2023/09/05 00:31:02;;;;;;;8.30;7.90;;;;;;;15.05;100.00;93021.25;5056932;28;20221;-81
2023/09/05 00:33:31;;;;;;;7.93;7.63;;;;;;;15.10;100.00;93004.59;5070057;28;20194;-80
2023/09/05 00:35:57;;;;;;;9.07;8.60;;;;;;;15.09;100.00;93003.81;5069436;28;20224;-81
2023/09/05 00:38:22;;;;;;;8.73;8.23;;;;;;;15.09;100.00;93000.41;5077560;28;20240;-80
2023/09/05 00:40:49;;;;;;;9.37;8.93;;;;;;;15.06;100.00;93001.78;5067942;28;20229;-80
2023/09/05 00:43:20;;;;;;;9.07;8.57;;;;;;;15.09;100.00;93005.66;5070605;28;20181;-81
2023/09/05 00:45:52;;;;;;;9.43;9.03;;;;;;;15.05;100.00;92999.47;5067756;28;20228;-80
2023/09/05 00:48:27;;;;;;;8.77;8.37;;;;;;;15.06;100.00;92991.28;5070871;28;20189;-80
2023/09/05 00:50:56;;;;;;;9.23;8.83;;;;;;;14.93;100.00;92997.31;5069851;28;20266;-81
2023/09/05 00:53:25;;;;;;;9.37;8.90;;;;;;;14.98;100.00;93002.47;5073541;28;20737;-81
2023/09/05 00:55:51;;;;;;;8.60;8.20;;;;;;;15.07;100.00;93002.56;5064318;28;20239;-81
2023/09/05 00:58:18;;;;;;;8.93;8.53;;;;;;;15.12;100.00;93005.06;5070035;28;20186;-81
2023/09/05 01:00:43;;;;;;;9.67;9.17;;;;;;;15.15;100.00;93001.84;5064563;28;20264;-80
2023/09/05 01:03:08;;;;;;;8.27;7.87;;;;;;;15.17;100.00;93002.34;5069226;28;20198;-81
2023/09/05 01:05:36;;;;;;;9.63;9.10;;;;;;;14.99;100.00;92998.00;5080319;28;20229;-81
2023/09/05 01:08:36;;;;;;;9.17;8.67;;;;;;;14.98;100.00;93005.13;5073180;28;20177;-81
2023/09/05 01:11:08;;;;;;;9.10;8.50;;;;;;;14.98;100.00;92993.81;5062143;28;20217;-82
2023/09/05 01:13:37;;;;;;;9.87;9.37;;;;;;;14.96;100.00;92990.72;5059594;28;20427;-80
2023/09/05 01:16:03;;;;;;;9.80;9.20;;;;;;;15.19;100.00;93005.47;5069021;28;20254;-82
2023/09/05 01:18:33;;;;;;;10.50;9.90;;;;;;;15.22;100.00;93004.88;5069570;28;20197;-80
2023/09/05 01:21:39;;;;;;;10.80;10.10;;;;;;;15.16;100.00;93019.22;5056174;28;20827;-81
2023/09/05 01:24:22;;;;;;;8.63;8.13;;;;;;;15.11;100.00;93016.69;5066968;28;20224;-82
2023/09/05 01:26:49;;;;;;;10.23;9.23;;;;;;;15.20;100.00;93009.63;5057511;28;20235;-81
2023/09/05 01:29:17;;;;;;;8.93;8.43;;;;;;;15.20;100.00;93001.75;5068499;28;20859;-80
2023/09/05 01:31:43;;;;;;;9.87;9.37;;;;;;;15.09;100.00;93003.03;5068480;28;20222;-81
2023/09/05 01:34:09;;;;;;;11.00;10.40;;;;;;;15.14;100.00;92993.19;5068498;28;20189;-80
2023/09/05 01:36:34;;;;;;;9.63;9.03;;;;;;;15.25;100.00;93004.28;5074878;28;20236;-80
2023/09/05 01:39:00;;;;;;;10.97;10.33;;;;;;;15.33;100.00;93009.59;5068209;28;20197;-81
2023/09/05 01:41:26;;;;;;;11.23;10.53;;;;;;;15.26;100.00;92997.94;5069059;28;20224;-81
2023/09/05 01:43:51;;;;;;;9.97;9.37;;;;;;;15.18;100.00;93003.88;5069185;28;20188;-78
2023/09/05 01:46:16;;;;;;;11.07;10.47;;;;;;;15.17;100.00;93007.59;5068706;28;20225;-81
2023/09/05 01:48:41;;;;;;;11.60;10.90;;;;;;;15.08;100.00;93006.75;5068798;28;20178;-80
2023/09/05 01:51:07;;;;;;;11.20;10.53;;;;;;;14.95;100.00;92989.94;5068408;28;20213;-81
2023/09/05 01:53:33;;;;;;;11.37;10.67;;;;;;;15.12;100.00;93005.06;5067650;28;20200;-81
2023/09/05 01:55:58;;;;;;;11.00;10.30;;;;;;;15.08;100.00;92993.59;5078185;28;20244;-81
2023/09/05 01:58:24;;;;;;;12.20;11.50;;;;;;;15.12;100.00;93002.44;5072904;28;20211;-81
2023/09/05 02:00:50;;;;;;;11.80;11.03;;;;;;;15.09;100.00;93005.66;5069123;28;20224;-81
2023/09/05 02:03:15;;;;;;;11.60;10.80;;;;;;;15.02;100.00;93005.31;5070585;28;20181;-81
2023/09/05 02:05:41;;;;;;;12.27;11.37;;;;;;;14.97;100.00;93000.94;5079328;28;20233;-81
2023/09/05 02:08:06;;;;;;;12.23;11.23;;;;;;;15.19;100.00;93010.72;5069607;28;20215;-81
2023/09/05 02:10:31;;;;;;;14.53;13.10;;;;;;;15.05;100.00;93004.72;5062241;28;20249;-81
2023/09/05 02:12:57;;;;;;;14.17;13.07;;;;;;;15.15;100.00;93010.53;5068874;28;20178;-81
2023/09/05 02:15:22;;;;;;;13.23;12.10;;;;;;;15.00;100.00;93008.22;5068540;28;20301;-81
2023/09/05 02:17:48;;;;;;;14.10;12.73;;;;;;;15.07;100.00;93013.84;5068933;28;20201;-81
2023/09/05 02:20:14;;;;;;;14.10;13.00;;;;;;;15.00;100.00;93028.47;5059849;28;20230;-81
2023/09/05 02:22:43;;;;;;;15.03;13.37;;;;;;;14.98;100.00;93025.34;5064239;28;20191;-79
2023/09/05 02:25:09;;;;;;;14.57;13.47;;;;;;;15.09;100.00;93027.50;5068557;28;20177;-79
2023/09/05 02:27:34;;;;;;;14.90;13.70;;;;;;;14.99;100.00;93019.81;5067396;28;20269;-81
2023/09/05 02:30:01;;;;;;;15.23;13.83;;;;;;;15.11;100.00;93029.84;5067525;28;20201;-80
2023/09/05 02:32:30;;;;;;;15.57;14.20;;;;;;;15.03;100.00;93022.63;5067933;28;20245;-81
2023/09/05 02:34:56;;;;;;;15.17;13.87;;;;;;;15.10;100.00;93020.38;5067297;28;20236;-80
2023/09/05 02:37:22;;;;;;;16.70;15.20;;;;;;;15.12;100.00;93015.59;5071109;28;20233;-81
2023/09/05 02:39:47;;;;;;;15.57;13.60;;;;;;;14.89;100.00;93016.63;5071390;28;20181;-79
2023/09/05 02:42:13;;;;;;;14.10;12.80;;;;;;;14.98;100.00;93022.72;5085104;28;20241;-79
2023/09/05 02:44:38;;;;;;;15.70;14.40;;;;;;;14.89;100.00;93011.34;5079687;28;20244;-82
2023/09/05 02:47:03;;;;;;;15.33;13.93;;;;;;;15.00;100.00;93020.59;5071769;28;20252;-81
2023/09/05 02:49:29;;;;;;;15.40;14.10;;;;;;;15.05;100.00;93021.25;5072123;28;20224;-82
2023/09/05 02:51:56;;;;;;;16.00;14.70;;;;;;;14.99;100.00;93019.03;5071364;28;20870;-81
2023/09/05 02:54:22;;;;;;;14.83;13.37;;;;;;;14.85;100.00;93015.66;5072117;28;20224;-80
2023/09/05 02:56:47;;;;;;;16.43;14.97;;;;;;;14.82;100.00;93005.72;5071997;28;20229;-80
2023/09/05 02:59:13;;;;;;;17.37;15.77;;;;;;;14.92;100.00;93010.75;5072547;28;20264;-81
2023/09/05 03:01:39;;;;;;;17.00;15.50;;;;;;;15.00;100.00;93010.88;5080491;28;20228;-81
2023/09/05 03:04:04;;;;;;;17.53;15.87;;;;;;;14.73;100.00;93007.47;5059907;28;20185;-77
2023/09/05 03:06:29;;;;;;;16.23;14.90;;;;;;;14.79;100.00;93012.34;5071455;28;20221;-80
2023/09/05 03:08:55;;;;;;;16.83;15.23;;;;;;;14.90;100.00;93020.78;5069962;28;20194;-80
2023/09/05 03:11:20;;;;;;;16.57;15.07;;;;;;;14.73;100.00;93012.72;5071282;28;20748;-82
2023/09/05 03:13:47;;;;;;;15.97;14.40;;;;;;;14.76;100.00;93017.41;5078171;28;20188;-81
2023/09/05 03:16:13;;;;;;;15.70;14.10;;;;;;;14.76;100.00;93007.66;5070828;28;20225;-80
2023/09/05 03:18:38;;;;;;;18.53;16.73;;;;;;;14.85;100.00;93016.41;5071974;28;20177;-82
2023/09/05 03:21:04;;;;;;;16.80;15.23;;;;;;;14.90;100.00;93026.06;5070578;28;20781;-81
2023/09/05 03:23:30;;;;;;;18.80;17.00;;;;;;;14.82;100.00;93026.75;5063972;28;20193;-78
2023/09/05 03:25:56;;;;;;;19.23;17.33;;;;;;;14.86;100.00;93027.72;5067447;28;20824;-82
2023/09/05 03:28:22;;;;;;;18.27;16.60;;;;;;;14.91;100.00;93030.25;5082899;28;20192;-81
2023/09/05 03:30:47;;;;;;;17.90;16.27;;;;;;;14.91;100.00;93030.25;5070525;28;20234;-81
2023/09/05 03:33:13;;;;;;;17.23;15.70;;;;;;;15.09;100.00;93035.38;5071665;28;20272;-82
2023/09/05 03:35:38;;;;;;;18.43;16.83;;;;;;;14.91;100.00;93035.50;5082567;28;20224;-81
2023/09/05 03:38:07;;;;;;;17.87;16.23;;;;;;;15.07;100.00;93050.66;5071443;28;20339;-79
2023/09/05 03:40:33;;;;;;;17.73;16.13;;;;;;;15.17;100.00;93054.94;5083136;28;20243;-83
2023/09/05 03:42:58;;;;;;;18.17;16.30;;;;;;;15.20;100.00;93049.88;5070430;28;20463;-82
2023/09/05 03:45:24;;;;;;;18.87;16.93;;;;;;;15.33;100.00;93053.56;5082471;28;20228;-82
2023/09/05 03:47:49;;;;;;;16.13;14.63;;;;;;;15.22;100.00;93046.94;5070583;28;20182;-83
2023/09/05 03:50:17;;;;;;;17.17;15.57;;;;;;;15.29;100.00;93047.31;5083603;28;20220;-82
2023/09/05 03:52:43;;;;;;;17.87;16.20;;;;;;;15.30;100.00;93041.00;5087071;28;20190;-83
2023/09/05 03:55:09;;;;;;;17.37;15.83;;;;;;;15.43;100.00;93048.09;5069709;28;20285;-80
2023/09/05 03:57:34;;;;;;;17.47;15.77;;;;;;;15.42;100.00;93043.91;5078945;28;20188;-81
2023/09/05 03:59:59;;;;;;;17.77;15.87;;;;;;;15.36;100.00;93045.06;5076191;28;20185;-82
2023/09/05 04:02:25;;;;;;;17.47;15.97;;;;;;;15.36;100.00;93037.19;5081968;28;20212;-82
2023/09/05 04:04:55;;;;;;;15.80;14.40;;;;;;;15.39;100.00;93036.63;5069042;28;20257;-82
2023/09/05 04:07:21;;;;;;;18.57;15.53;;;;;;;15.34;100.00;93028.78;5070889;28;20205;-82
2023/09/05 04:09:47;;;;;;;17.23;15.53;;;;;;;15.21;100.00;93035.66;5070440;28;20197;-82
2023/09/05 04:12:13;;;;;;;18.50;15.77;;;;;;;15.16;100.00;93041.00;5069733;28;20266;-81
2023/09/05 04:14:39;;;;;;;17.70;16.00;;;;;;;15.10;100.00;93033.50;5070664;28;20216;-82
2023/09/05 04:17:04;;;;;;;17.40;15.77;;;;;;;15.18;100.00;93052.03;5077874;28;20312;-80
2023/09/05 04:19:30;;;;;;;17.80;16.13;;;;;;;15.23;100.00;93056.41;5070501;28;20181;-81
2023/09/05 04:21:55;;;;;;;17.30;15.70;;;;;;;15.26;100.00;93043.44;5069973;28;20233;-82
2023/09/05 04:24:20;;;;;;;18.70;16.90;;;;;;;15.31;100.00;93058.31;5069200;28;20252;-81
2023/09/05 04:26:46;;;;;;;18.57;16.87;;;;;;;15.39;100.00;93057.66;5070206;28;20304;-82
2023/09/05 04:29:12;;;;;;;17.97;16.27;;;;;;;15.31;100.00;93039.91;5070713;28;20198;-82
2023/09/05 04:31:37;;;;;;;18.30;16.73;;;;;;;15.42;100.00;93049.19;5069951;28;20225;-82
2023/09/05 04:34:02;;;;;;;19.67;17.87;;;;;;;15.46;100.00;93052.75;5067259;28;20269;-82
2023/09/05 04:36:28;;;;;;;19.33;17.47;;;;;;;15.66;100.00;93054.94;5069249;28;20241;-82
2023/09/05 04:38:53;;;;;;;18.87;15.53;;;;;;;15.79;100.00;93056.75;5071346;28;20197;-81
2023/09/05 04:41:20;;;;;;;18.73;16.90;;;;;;;15.90;100.00;93052.78;5069826;28;20229;-82
2023/09/05 04:43:46;;;;;;;21.00;16.67;;;;;;;15.90;100.00;93048.31;5069500;28;20192;-82
2023/09/05 04:46:12;;;;;;;17.53;16.03;;;;;;;15.93;100.00;93052.97;5069930;28;20271;-81
2023/09/05 04:48:38;;;;;;;19.10;17.20;;;;;;;15.60;100.00;93038.50;5069677;28;20204;-82
2023/09/05 04:51:04;;;;;;;19.13;17.23;;;;;;;15.58;100.00;93051.16;5069826;28;20220;-82
2023/09/05 04:53:33;;;;;;;18.37;16.67;;;;;;;15.89;100.00;93051.25;5069754;28;20197;-79
2023/09/05 04:56:00;;;;;;;19.13;17.33;;;;;;;16.02;100.00;93042.50;5069293;28;20255;-78
2023/09/05 04:58:30;;;;;;;18.80;17.10;;;;;;;16.08;100.00;93044.69;5068467;28;20200;-78
2023/09/05 05:01:02;;;;;;;17.77;16.00;;;;;;;16.21;100.00;93048.34;5069568;28;20213;-77
2023/09/05 05:03:32;;;;;;;18.33;16.63;;;;;;;16.34;100.00;93038.81;5067912;28;20949;-81
2023/09/05 05:05:57;;;;;;;17.33;15.87;;;;;;;16.10;100.00;93036.50;5079059;28;20228;-82
2023/09/05 05:08:23;;;;;;;19.00;17.27;;;;;;;16.27;100.00;93064.78;5067497;28;20204;-82
2023/09/05 05:10:49;;;;;;;16.53;15.10;;;;;;;16.25;100.00;93057.19;5069446;28;20228;-82
2023/09/05 05:13:14;;;;;;;16.53;15.03;;;;;;;16.36;100.00;93050.59;5067539;28;20872;-82
2023/09/05 05:15:40;;;;;;;17.97;16.37;;;;;;;16.02;100.00;93066.97;5060425;28;20221;-82
2023/09/05 05:18:05;;;;;;;17.90;16.30;;;;;;;16.38;100.00;93066.09;5080677;28;20204;-82
2023/09/05 05:20:31;;;;;;;18.07;16.33;;;;;;;16.48;100.00;93057.97;5067132;28;20228;-79
2023/09/05 05:22:56;;;;;;;17.23;15.77;;;;;;;16.47;100.00;93072.25;5068429;28;20201;-82
2023/09/05 05:25:22;;;;;;;18.30;16.47;;;;;;;16.62;100.00;93054.16;5058877;28;20224;-82
2023/09/05 05:27:47;;;;;;;17.90;16.23;;;;;;;17.03;100.00;93065.16;5069077;28;20195;-80
2023/09/05 05:30:13;;;;;;;17.73;15.93;;;;;;;17.27;100.00;93062.09;5069095;28;20228;-82
2023/09/05 05:32:38;;;;;;;18.57;16.63;;;;;;;17.27;100.00;93065.53;5068740;28;20192;-82
2023/09/05 05:35:04;;;;;;;17.20;15.83;;;;;;;17.09;100.00;93063.16;5067888;28;20213;-82
2023/09/05 05:37:30;;;;;;;18.57;16.70;;;;;;;16.94;100.00;93060.94;5068916;28;20228;-81
2023/09/05 05:39:55;;;;;;;16.73;15.23;;;;;;;16.63;100.00;93074.16;5067917;28;20193;-81
2023/09/05 05:42:21;;;;;;;19.13;17.13;;;;;;;16.51;100.00;93073.97;5070289;28;20190;-82
2023/09/05 05:44:46;;;;;;;17.93;16.13;;;;;;;16.65;100.00;93081.78;5078740;28;20784;-82
2023/09/05 05:47:11;;;;;;;16.47;14.97;;;;;;;16.81;100.00;93070.50;5066624;28;20907;-83
2023/09/05 05:49:37;;;;;;;19.80;17.70;;;;;;;16.88;100.00;93068.22;5069029;28;20178;-82
2023/09/05 05:52:02;;;;;;;18.60;16.90;;;;;;;17.00;100.00;93081.59;5067784;28;20263;-82
2023/09/05 05:54:28;;;;;;;18.90;17.03;;;;;;;16.88;100.00;93078.78;5068513;28;20209;-82
2023/09/05 05:56:57;;;;;;;19.57;16.03;;;;;;;17.00;100.00;93080.81;5067253;28;20219;-82
2023/09/05 05:59:24;;;;;;;16.80;15.07;;;;;;;16.86;100.00;93091.47;5077690;28;20189;-83
2023/09/05 06:01:52;;;;;;;19.40;17.60;;;;;;;16.90;100.00;93086.38;5067529;28;20278;-82
2023/09/05 06:04:18;;;;;;;18.80;17.03;;;;;;;17.01;100.00;93085.78;5068845;28;20201;-82
2023/09/05 06:06:45;;;;;;;19.60;17.27;;;;;;;17.07;100.00;93083.78;5065893;28;20233;-82
2023/09/05 06:09:11;;;;;;;18.93;17.13;;;;;;;17.03;100.00;93072.28;5067514;28;20201;-82
2023/09/05 06:11:36;;;;;;;19.87;17.63;;;;;;;17.19;100.00;93079.47;5074045;28;20221;-82
2023/09/05 06:14:02;;;;;;;20.33;18.43;;;;;;;17.19;100.00;93086.63;5063552;28;20198;-82
2023/09/05 06:16:28;;;;;;;19.33;17.43;;;;;;;17.18;100.00;93080.56;5079804;28;20234;-81
2023/09/05 06:18:53;;;;;;;18.63;16.83;;;;;;;16.75;100.00;93063.81;5072177;28;20186;-82
2023/09/05 06:21:18;;;;;;;21.13;18.67;;;;;;;16.88;100.00;93091.16;5069778;28;20251;-82
2023/09/05 06:23:44;;;;;;;22.20;18.83;;;;;;;16.88;100.00;93076.13;5063059;28;20200;-82
2023/09/05 06:26:09;;;;;;;21.60;17.97;;;;;;;16.92;100.00;93079.69;5056602;28;20210;-81
2023/09/05 06:28:35;;;;;;;20.37;18.30;;;;;;;16.78;100.00;93091.47;5072577;28;20252;-82
2023/09/05 06:31:00;;;;;;;20.50;18.37;;;;;;;16.74;100.00;93066.75;5071500;28;20807;-82
2023/09/05 06:33:26;;;;;;;22.47;20.17;;;;;;;16.67;100.00;93080.38;5072107;28;20208;-78
2023/09/05 06:35:52;;;;;;;22.53;20.23;;;;;;;16.57;100.00;93082.50;5058414;28;20237;-79
2023/09/05 06:38:17;;;;;;;22.23;19.90;;;;;;;16.94;100.00;93093.38;5062307;28;20198;-81
2023/09/05 06:40:43;;;;;;;20.90;18.80;;;;;;;16.84;100.00;93082.31;5068076;28;20221;-83
2023/09/05 06:43:09;;;;;;;19.93;17.90;;;;;;;16.83;100.00;93097.38;5072645;28;20708;-80
2023/09/05 06:45:35;;;;;;;22.60;20.33;;;;;;;16.52;100.00;93101.88;5071865;28;20231;-81
2023/09/05 06:48:00;;;;;;;28.20;20.47;;;;;;;16.15;100.00;93102.25;5072608;28;20264;-82
2023/09/05 06:50:26;;;;;;;31.93;21.17;;;;;;;16.41;100.00;93103.16;5082032;28;20225;-82
2023/09/05 06:52:52;;;;;;;23.00;20.60;;;;;;;16.71;100.00;93099.81;5061882;28;20220;-78
2023/09/05 06:55:17;;;;;;;22.47;20.07;;;;;;;16.71;100.00;93110.34;5071382;28;20233;-82
2023/09/05 06:57:43;;;;;;;22.83;19.97;;;;;;;16.65;100.00;93101.00;5072272;28;20221;-83
2023/09/05 07:00:09;;;;;;;22.93;20.63;;;;;;;16.83;100.00;93110.53;5071993;28;20217;-81
2023/09/05 07:02:35;;;;;;;22.93;20.60;;;;;;;16.90;100.00;93096.94;5071454;28;20553;-81
2023/09/05 07:05:00;;;;;;;25.53;19.20;;;;;;;17.12;100.00;93108.16;5071428;28;20189;-82
2023/09/05 07:07:25;;;;;;;21.40;19.43;;;;;;;17.73;99.79;93119.69;5082093;28;20280;-79
2023/09/05 07:09:51;;;;;;;21.57;19.43;;;;;;;17.76;98.85;93121.69;5070414;28;20217;-82
2023/09/05 07:12:16;;;;;;;23.10;20.67;;;;;;;17.60;100.00;93124.00;5070331;28;20240;-83
2023/09/05 07:14:43;;;;;;;22.20;19.93;;;;;;;17.33;100.00;93132.94;5070345;28;20215;-83
2023/09/05 07:17:09;;;;;;;21.50;19.53;;;;;;;17.22;100.00;93131.66;5071380;28;20273;-83
2023/09/05 07:19:35;;;;;;;21.40;19.20;;;;;;;17.14;100.00;93131.59;5071688;28;20865;-82
2023/09/05 07:22:00;;;;;;;25.47;20.33;;;;;;;16.86;100.00;93130.25;5067743;28;20221;-82
2023/09/05 07:24:25;;;;;;;25.17;20.80;;;;;;;16.94;100.00;93134.78;5071667;28;20188;-82
2023/09/05 07:26:51;;;;;;;21.43;19.13;;;;;;;16.95;100.00;93131.84;5071200;28;20221;-79
2023/09/05 07:29:16;;;;;;;21.13;19.03;;;;;;;17.06;100.00;93142.91;5071879;28;20197;-83
2023/09/05 07:31:42;;;;;;;20.50;18.40;;;;;;;17.11;100.00;93150.69;5070907;28;20221;-82
2023/09/05 07:34:08;;;;;;;20.63;18.63;;;;;;;16.98;100.00;93147.06;5070585;28;20199;-82
2023/09/05 07:36:35;;;;;;;20.23;17.90;;;;;;;16.98;100.00;93152.34;5070697;28;20241;-82
2023/09/05 07:39:03;;;;;;;19.03;17.13;;;;;;;17.14;100.00;93144.81;5070088;28;20271;-81
2023/09/05 07:41:29;;;;;;;18.77;17.07;;;;;;;17.03;100.00;93154.06;5069540;28;20244;-83
2023/09/05 07:43:55;;;;;;;17.90;16.07;;;;;;;16.88;100.00;93171.09;5070266;28;20285;-81
2023/09/05 07:46:20;;;;;;;18.63;16.83;;;;;;;16.77;100.00;93167.16;5070713;28;20229;-83
2023/09/05 07:48:47;;;;;;;17.13;15.63;;;;;;;16.74;100.00;93175.66;5070060;28;20237;-82
2023/09/05 07:51:13;;;;;;;17.17;15.67;;;;;;;16.71;100.00;93168.34;5070907;28;20373;-82
2023/09/05 07:53:38;;;;;;;17.57;15.97;;;;;;;16.77;100.00;93161.88;5067658;28;20228;-82
2023/09/05 07:56:04;;;;;;;19.10;17.40;;;;;;;16.69;100.00;93170.50;5060526;28;20233;-81
2023/09/05 07:58:30;;;;;;;19.17;17.47;;;;;;;16.66;100.00;93160.56;5071380;28;20190;-83
2023/09/05 08:00:56;;;;;;;18.47;16.67;;;;;;;16.94;100.00;93161.94;5070666;28;20217;-82
2023/09/05 08:03:25;;;;;;;16.70;15.23;;;;;;;16.99;100.00;93164.47;5070709;28;20268;-83
2023/09/05 08:05:51;;;;;;;17.93;16.23;;;;;;;16.91;100.00;93156.50;5070453;28;20222;-83
2023/09/05 08:08:17;;;;;;;17.13;15.80;;;;;;;16.96;100.00;93159.81;5073531;28;20192;-81
2023/09/05 08:10:43;;;;;;;18.60;16.93;;;;;;;17.04;100.00;93160.91;5078058;28;20221;-83
2023/09/05 08:13:10;;;;;;;18.57;15.77;;;;;;;17.05;100.00;93165.09;5082655;28;20185;-82
2023/09/05 08:15:36;;;;;;;17.70;16.13;;;;;;;16.96;100.00;93164.28;5070325;28;20229;-81
2023/09/05 08:18:03;;;;;;;18.97;17.10;;;;;;;16.89;100.00;93174.47;5069643;28;20197;-82
2023/09/05 08:20:29;;;;;;;19.20;17.27;;;;;;;16.95;100.00;93163.50;5080746;28;20235;-82
2023/09/05 08:22:54;;;;;;;17.97;16.23;;;;;;;16.93;100.00;93160.41;5069138;28;20200;-81
2023/09/05 08:25:23;;;;;;;18.03;16.23;;;;;;;17.29;100.00;93174.19;5059667;28;20225;-82
2023/09/05 08:27:49;;;;;;;18.33;16.63;;;;;;;17.46;100.00;93161.06;5069551;28;20182;-82
2023/09/05 08:30:15;;;;;;;16.90;15.50;;;;;;;17.84;98.34;93168.47;5070136;28;20251;-82
2023/09/05 08:32:41;;;;;;;17.23;15.83;;;;;;;17.79;97.62;93176.53;5081772;28;20212;-82
2023/09/05 08:35:10;;;;;;;17.63;16.03;;;;;;;17.94;97.66;93168.94;5069827;28;20283;-82
2023/09/05 08:37:36;;;;;;;16.37;14.97;;;;;;;18.15;93.99;93182.34;5069764;28;20223;-83
2023/09/05 08:40:03;;;;;;;18.50;16.77;;;;;;;18.03;96.94;93179.50;5070222;28;20194;-81
2023/09/05 08:42:32;;;;;;;17.03;15.63;;;;;;;17.90;99.58;93183.09;5067104;28;20174;-82
2023/09/05 08:45:04;;;;;;;18.63;16.73;;;;;;;17.81;97.45;93180.44;5069574;28;20170;-81
2023/09/05 08:47:30;;;;;;;17.03;15.63;;;;;;;17.90;96.21;93183.84;5068264;28;20185;-83
2023/09/05 08:49:59;;;;;;;17.47;15.77;;;;;;;17.74;95.35;93179.31;5069596;28;20202;-80
2023/09/05 08:52:28;;;;;;;16.20;14.80;;;;;;;17.62;99.05;93187.06;5070021;28;20187;-81
2023/09/05 08:54:55;;;;;;;16.63;15.07;;;;;;;17.60;97.84;93190.03;5069070;28;20213;-84
2023/09/05 08:57:23;;;;;;;16.37;14.87;;;;;;;17.62;97.29;93193.13;5070060;28;20191;-82
2023/09/05 08:59:48;;;;;;;15.80;14.40;;;;;;;17.71;97.68;93193.16;5068849;28;20193;-82
2023/09/05 09:02:17;;;;;;;17.97;15.97;;;;;;;17.77;99.98;93186.63;5068238;28;20230;-82
2023/09/05 09:04:58;;;;;;;18.33;16.73;;;;;;;18.02;100.00;93196.47;5070029;28;20286;-82
2023/09/05 09:07:27;;;;;;;18.40;16.80;;;;;;;17.78;100.00;93185.53;5059285;28;20849;-82
2023/09/05 09:09:54;;;;;;;17.63;15.93;;;;;;;18.20;98.90;93187.44;5069029;28;20193;-79
2023/09/05 09:12:29;;;;;;;20.67;16.80;;;;;;;18.25;99.04;93195.25;5059444;28;20192;-78
2023/09/05 09:14:54;;;;;;;17.60;16.03;;;;;;;17.80;99.87;93204.50;5066203;28;20204;-82
2023/09/05 09:17:19;;;;;;;19.87;16.67;;;;;;;17.98;98.68;93179.69;5078538;28;20211;-79
2023/09/05 09:19:45;;;;;;;17.67;15.47;;;;;;;18.29;97.47;93194.31;5083015;28;20274;-82
2023/09/05 09:22:10;;;;;;;16.53;14.80;;;;;;;18.52;92.56;93194.97;5067722;28;20281;-81
2023/09/05 09:24:39;;;;;;;17.50;15.80;;;;;;;18.66;92.15;93185.00;5068218;28;20189;-81
2023/09/05 09:27:06;;;;;;;17.00;15.60;;;;;;;18.78;91.91;93193.84;5079347;28;20244;-82
2023/09/05 09:29:34;;;;;;;16.73;14.97;;;;;;;18.73;92.49;93180.78;5070818;28;20238;-82
2023/09/05 09:32:04;;;;;;;15.50;14.10;;;;;;;18.53;93.28;93186.72;5069059;28;20223;-82
2023/09/05 09:34:38;;;;;;;16.33;14.73;;;;;;;18.29;94.87;93177.69;5069325;28;20635;-81
2023/09/05 09:37:04;;;;;;;16.33;14.80;;;;;;;18.37;94.36;93176.88;5068507;28;20297;-80
2023/09/05 09:39:30;;;;;;;16.00;14.60;;;;;;;18.76;92.83;93177.50;5068409;28;20194;-81
2023/09/05 09:41:59;;;;;;;16.40;14.90;;;;;;;18.88;90.63;93179.47;5068691;28;20223;-83
2023/09/05 09:44:26;;;;;;;14.83;13.33;;;;;;;18.83;90.59;93200.84;5069025;28;20199;-81
2023/09/05 09:46:52;;;;;;;15.40;14.10;;;;;;;18.70;87.34;93186.69;5068429;28;20286;-78
2023/09/05 09:49:19;;;;;;;15.67;14.27;;;;;;;18.95;89.17;93187.72;5067816;28;20203;-82
2023/09/05 09:51:49;;;;;;;17.57;13.67;;;;;;;19.59;87.21;93180.50;5067481;28;20722;-81
2023/09/05 09:54:17;;;;;;;13.47;12.27;;;;;;;19.46;85.82;93176.97;5068340;28;20176;-81
2023/09/05 09:56:45;;;;;;;13.40;12.30;;;;;;;19.80;76.40;93184.00;5068423;28;20227;-81
2023/09/05 09:59:12;;;;;;;11.77;10.33;;;;;;;19.76;75.01;93178.56;5069237;28;20182;-82
2023/09/05 10:01:38;;;;;;;12.40;11.27;;;;;;;19.92;76.70;93181.41;5066842;28;20282;-81
2023/09/05 10:04:04;;;;;;;12.10;11.00;;;;;;;19.55;73.63;93167.13;5066309;28;20199;-82
2023/09/05 10:06:29;;;;;;;11.63;10.63;;;;;;;19.67;75.34;93158.50;5065469;28;20457;-82
2023/09/05 10:08:56;;;;;;;11.20;10.40;;;;;;;19.62;75.90;93178.00;5069095;28;20182;-82
2023/09/05 10:11:21;;;;;;;12.37;11.50;;;;;;;19.67;78.32;93166.44;5068641;28;20239;-82
2023/09/05 10:13:48;;;;;;;11.93;10.87;;;;;;;19.64;78.54;93162.56;5069092;28;20187;-82
2023/09/05 10:16:15;;;;;;;11.67;10.67;;;;;;;19.40;78.74;93172.97;5067394;28;20232;-81
2023/09/05 10:18:43;;;;;;;17.27;14.17;;;;;;;19.27;74.47;93171.25;5067617;28;20213;-82
2023/09/05 10:21:09;;;;;;;11.33;10.43;;;;;;;19.33;74.96;93177.97;5070701;28;20231;-82
2023/09/05 10:23:36;;;;;;;12.33;11.23;;;;;;;19.29;73.11;93171.75;5071596;28;20334;-83
2023/09/05 10:26:03;;;;;;;11.57;10.77;;;;;;;19.37;74.58;93178.09;5064222;28;20238;-81
2023/09/05 10:28:28;;;;;;;11.33;10.50;;;;;;;19.46;73.50;93165.59;5068869;28;20240;-83
2023/09/05 10:31:04;;;;;;;11.67;10.77;;;;;;;19.49;71.07;93184.28;5068055;28;20234;-83
2023/09/05 10:33:35;;;;;;;11.03;10.30;;;;;;;19.45;71.26;93180.72;5068492;28;20161;-82
2023/09/05 10:36:00;;;;;;;10.83;10.13;;;;;;;19.47;69.96;93183.81;5067467;28;20241;-83
2023/09/05 10:38:29;;;;;;;11.67;10.77;;;;;;;19.45;71.85;93175.44;5068323;28;20198;-83
2023/09/05 10:40:54;;;;;;;11.27;10.43;;;;;;;19.77;71.40;93195.19;5068510;28;20248;-82
2023/09/05 10:43:22;;;;;;;10.57;9.93;;;;;;;20.09;69.09;93176.78;5068580;28;20195;-82
2023/09/05 10:45:59;;;;;;;10.87;9.87;;;;;;;20.10;70.12;93185.50;5067094;28;20221;-83
2023/09/05 10:48:32;;;;;;;11.03;10.33;;;;;;;19.94;68.77;93187.94;5080733;28;20198;-81
2023/09/05 10:51:12;;;;;;;11.47;10.27;;;;;;;19.86;67.94;93180.06;5056287;28;20289;-84
2023/09/05 10:54:19;;;;;;;11.40;10.43;;;;;;;19.86;69.95;93180.06;5067237;28;20203;-82
2023/09/05 10:56:44;;;;;;;10.37;9.47;;;;;;;20.02;68.24;93179.16;5068652;28;20223;-83
2023/09/05 10:59:30;;;;;;;10.70;9.17;;;;;;;20.09;67.55;93187.38;5072228;28;20226;-83
2023/09/05 11:02:06;;;;;;;10.40;9.70;;;;;;;19.85;67.30;93175.84;5071175;28;20260;-83
2023/09/05 11:04:34;;;;;;;10.60;9.50;;;;;;;19.97;68.65;93179.34;5072999;28;20187;-84
2023/09/05 11:07:09;;;;;;;10.73;9.83;;;;;;;20.29;67.18;93178.69;5079601;28;20214;-83
2023/09/05 11:09:44;;;;;;;11.17;10.47;;;;;;;20.43;65.10;93195.13;5070875;28;20195;-83
2023/09/05 11:12:11;;;;;;;10.57;9.57;;;;;;;20.25;63.33;93193.69;5066966;28;20312;-82
2023/09/05 11:14:36;;;;;;;12.03;11.03;;;;;;;20.16;65.01;93184.22;5069942;28;20271;-83